Home > Products > Valid Products > TAF

000
FTUS43 KILX 201100
TAFBMI
TAF
KBMI 201140Z 2012/2112 15004KT 4SM BR SCT012 OVC040
     FM201500 17006KT 6SM HZ SCT015 OVC040
     FM202100 18006KT P6SM BKN015 OVC035
     FM210200 17006KT P6SM OVC015=



000
FTUS43 KILX 201100
TAFCMI
TAF
KCMI 201140Z 2012/2112 14003KT 4SM BR SCT015 OVC045
     FM201600 16005KT P6SM SCT020 BKN045
     FM210300 15006KT P6SM BKN020 OVC045=



000
FTUS43 KILX 201100
TAFPIA
TAF
KPIA 201140Z 2012/2112 13003KT 5SM HZ OVC045
     FM201600 16003KT P6SM SCT015 OVC040
     FM202000 18005KT P6SM BKN020 OVC040
     FM210100 18006KT 6SM HZ BKN012 OVC035=



000
FTUS43 KILX 201100
TAFDEC
TAF
KDEC 201140Z 2012/2112 14003KT 6SM BR OVC045
     FM201600 16005KT P6SM OVC040
     FM202200 18006KT P6SM BKN025 OVC040
     FM210300 17005KT P6SM OVC020=



000
FTUS43 KILX 201100
TAFSPI
TAF
KSPI 201140Z 2012/2112 15003KT 6SM HZ SCT015 OVC045
     FM201600 16006KT P6SM SCT012 OVC035
     FM202100 15007KT P6SM OVC025
     FM210200 16006KT P6SM BKN020 OVC050=



000
FTUS43 KILX 201100 AAB
TAFCMI
TAF AMD
KCMI 201105Z 2011/2106 14003KT 4SM BR SCT015 OVC045
     FM201500 16005KT P6SM SCT015 BKN045=



000
FTUS43 KILX 201100 AAA
TAFDEC
TAF AMD
KDEC 201104Z 2011/2106 14003KT 6SM BR OVC045
     FM201600 16005KT P6SM OVC040
     FM202000 18006KT P6SM BKN015 OVC035
     FM210200 17005KT P6SM OVC020=



000
FTUS43 KILX 201100 AAA
TAFBMI
TAF AMD
KBMI 201101Z 2011/2106 17002KT 4SM BR OVC040
     FM201500 18006KT 6SM HZ SCT015 OVC040
     FM202000 18006KT P6SM BKN015 OVC035
     FM210200 17006KT P6SM OVC015=



000
FTUS43 KILX 201000 AAA
TAFPIA
TAF AMD
KPIA 201059Z 2011/2106 13003KT 5SM HZ OVC045
     FM201500 16003KT P6SM SCT015 OVC040
     FM202000 18005KT P6SM BKN020 OVC040
     FM210100 18006KT 6SM HZ BKN012 OVC035=



000
FTUS43 KILX 200800 AAA
TAFCMI
TAF AMD
KCMI 200822Z 2008/2106 14003KT 4SM BR SCT015 OVC070
      TEMPO 2009/2013 2SM BR OVC015
     FM201600 16005KT P6SM SCT015 BKN050=



000
FTUS43 KILX 200500
TAFSPI
TAF
KSPI 200533Z 2006/2106 15003KT P6SM OVC060
     FM201200 16003KT 5SM BR BKN025
     FM201600 17006KT P6SM SCT025 OVC040=



000
FTUS43 KILX 200500
TAFBMI
TAF
KBMI 200533Z 2006/2106 16002KT P6SM SCT070
     FM200800 16003KT 5SM BR BKN050
     FM201000 17002KT 4SM BR OVC015
     FM201600 18006KT P6SM SCT015 OVC035=



000
FTUS43 KILX 200500
TAFCMI
TAF
KCMI 200533Z 2006/2106 13004KT 5SM BR BKN025
     FM200800 14003KT 4SM BR OVC015
      TEMPO 2009/2013 2SM BR OVC015
     FM201600 16005KT P6SM SCT015 BKN050=



000
FTUS43 KILX 200500
TAFPIA
TAF
KPIA 200533Z 2006/2106 13003KT P6SM BKN060
     FM200900 15003KT 5SM BR OVC050
     FM201200 16003KT 4SM BR OVC015
     FM201600 17005KT P6SM SCT015 OVC040=



000
FTUS43 KILX 200500
TAFDEC
TAF
KDEC 200533Z 2006/2106 13003KT P6SM OVC060
     FM200800 14003KT 5SM BR BKN050
     FM201000 14003KT 4SM BR BKN025
     FM201600 16005KT P6SM SCT025 OVC035=



000
FTUS43 KILX 200400 AAA
TAFCMI
TAF AMD
KCMI 200458Z 2005/2024 12003KT 5SM BR SCT025 BKN150
     FM201000 VRB03KT P6SM BKN050
     FM201600 13005KT 4SM BR BKN025=



000
FTUS43 KILX 192300
TAFSPI
TAF
KSPI 192335Z 2000/2024 VRB03KT P6SM BKN060
     FM201400 13005KT 4SM BR BKN025=



000
FTUS43 KILX 192300
TAFPIA
TAF
KPIA 192335Z 2000/2024 VRB03KT P6SM BKN150
     FM200500 VRB03KT P6SM BKN050
     FM201300 14005KT 4SM BR BKN025=



000
FTUS43 KILX 192300
TAFCMI
TAF
KCMI 192335Z 2000/2024 VRB03KT P6SM SCT025
     FM201000 VRB03KT P6SM BKN050
     FM201600 13005KT 4SM BR BKN025=



000
FTUS43 KILX 192300
TAFDEC
TAF
KDEC 192335Z 2000/2024 VRB03KT P6SM SCT050
     FM200800 VRB03KT P6SM BKN050
     FM201500 13005KT 4SM BR BKN025=



000
FTUS43 KILX 192300
TAFBMI
TAF
KBMI 192335Z 2000/2024 VRB03KT P6SM BKN150
     FM200700 VRB03KT P6SM BKN050
     FM201600 14007KT 4SM BR BKN025=



000
FTUS43 KILX 192100 AAA
TAFCMI
TAF AMD
KCMI 192123Z 1921/2018 VRB03KT P6SM SCT025
     FM201000 VRB03KT P6SM BKN050
     FM201600 13005KT 4SM BR BKN025=



000
FTUS43 KILX 191700 RRA
TAFSPI
TAF
KSPI 191743Z 1918/2018 VRB03KT P6SM BKN050
     FM201400 13005KT 4SM BR BKN025=



000
FTUS43 KILX 191700 RRA
TAFPIA
TAF
KPIA 191743Z 1918/2018 VRB03KT P6SM SCT025
     FM200500 VRB03KT P6SM BKN050
     FM201300 14005KT 4SM BR BKN025=



000
FTUS43 KILX 191700 RRA
TAFCMI
TAF
KCMI 191743Z 1918/2018 VRB03KT P6SM SKC
     FM201000 VRB03KT P6SM BKN050
     FM201600 13005KT 4SM BR BKN025=



000
FTUS43 KILX 191700 RRA
TAFDEC
TAF
KDEC 191743Z 1918/2018 VRB03KT P6SM SKC
     FM200800 VRB03KT P6SM BKN050
     FM201500 13005KT 4SM BR BKN025=



000
FTUS43 KILX 191700 RRA
TAFBMI
TAF
KBMI 191743Z 1918/2018 VRB03KT P6SM SCT015
     FM200700 VRB03KT P6SM BKN050
     FM201600 14007KT 4SM BR BKN025=



000
FTUS43 KILX 191500 AAA
TAFDEC
TAF AMD
KDEC 191506Z 1915/2012 VRB03KT 5SM BR SCT035
     FM191600 VRB03KT P6SM SCT035
     FM192200 VRB03KT P6SM BKN035=



000
FTUS43 KILX 191500 AAB
TAFPIA
TAF AMD
KPIA 191504Z 1915/2012 VRB03KT 4SM HZ SCT015
     FM191600 VRB03KT P6SM SCT015
     FM192100 VRB03KT P6SM SCT015 BKN035=



000
FTUS43 KILX 191500 AAB
TAFBMI
TAF AMD
KBMI 191503Z 1915/2012 VRB03KT 4SM BR SCT012
     FM191600 VRB03KT P6SM SCT012
     FM192300 VRB03KT P6SM SCT012 BKN035=



000
FTUS43 KILX 191300 AAA
TAFPIA
TAF AMD
KPIA 191349Z 1914/2012 VRB03KT 6SM HZ SKC
     FM191600 VRB03KT P6SM SCT015 BKN045
     FM200100 VRB03KT P6SM SCT015 BKN035=



000
FTUS43 KILX 191300 AAA
TAFPIA
TAF AMD
KPIA 191349Z 1914/2012 VRB03KT 6SM HZ SKC
     FM191600 VRB03KT P6SM SCT015 BKN045
     FM200100 VRB03KT P6SM SCT015 BKN035=



000
FTUS43 KILX 191300 AAA
TAFCMI
TAF AMD
KCMI 191337Z 1914/2012 VRB04KT P6SM SKC
     FM191600 VRB03KT P6SM SCT012 BKN035
     FM200200 VRB03KT P6SM SCT012 OVC035=



000
FTUS43 KILX 191300 AAA
TAFBMI
TAF AMD
KBMI 191336Z 1914/2012 VRB04KT P6SM SCT012
     FM191600 07002KT P6SM SCT025
     FM200200 VRB03KT P6SM SCT012 BKN035=



000
FTUS43 KILX 191100 RRA
TAFPIA
TAF
KPIA 191141Z 1912/2012 03002KT 6SM BR BKN045
     FM191500 VRB03KT P6SM BKN040
     FM200100 VRB03KT P6SM SCT015 BKN035=



000
FTUS43 KILX 191100 RRA
TAFCMI
TAF
KCMI 191141Z 1912/2012 35003KT 5SM BR SKC
     FM191600 VRB03KT P6SM SCT015 BKN040
     FM200200 VRB03KT P6SM SCT012 OVC035=



000
FTUS43 KILX 191100 RRA
TAFSPI
TAF
KSPI 191141Z 1912/2012 07003KT P6SM SCT010 OVC040
     FM191500 VRB03KT P6SM OVC045
     FM200100 VRB03KT P6SM OVC040=



000
FTUS43 KILX 191100 RRA
TAFBMI
TAF
KBMI 191141Z 1912/2012 30001KT 5SM BR SKC
     FM191500 07002KT P6SM SCT035
     FM200200 VRB03KT P6SM SCT012 BKN035=



000
FTUS43 KILX 191100 RRA
TAFDEC
TAF
KDEC 191141Z 1912/2012 36003KT 5SM BR SCT035
     FM191600 VRB03KT P6SM BKN045
     FM200200 VRB03KT P6SM BKN040=



000
FTUS43 KILX 190500
TAFDEC
TAF
KDEC 190530Z 1906/2006 00000KT 6SM BR FEW018 OVC050
     FM190800 36003KT P6SM BKN050
     FM191600 VRB03KT P6SM BKN050=



000
FTUS43 KILX 190500
TAFBMI
TAF
KBMI 190530Z 1906/2006 30001KT P6SM FEW040
     FM191500 07002KT P6SM SCT040=



000
FTUS43 KILX 190500
TAFSPI
TAF
KSPI 190530Z 1906/2006 04003KT P6SM OVC040
     FM191400 VRB03KT P6SM OVC050=



000
FTUS43 KILX 190500
TAFCMI
TAF
KCMI 190530Z 1906/2006 35003KT P6SM SCT050
     FM191600 VRB03KT P6SM OVC050=



000
FTUS43 KILX 190500
TAFPIA
TAF
KPIA 190530Z 1906/2006 03002KT P6SM SCT050
     FM191500 VRB03KT P6SM BKN050=



000
FTUS43 KILX 190400 AAB
TAFDEC
TAF AMD
KDEC 190417Z 1904/1924 35003KT P6SM SCT015
     FM191200 VRB03KT P6SM BKN050=



000
FTUS43 KILX 190400 AAB
TAFSPI
TAF AMD
KSPI 190407Z 1904/1924 35003KT P6SM OVC040
     FM191400 VRB03KT P6SM BKN050=



000
FTUS43 KILX 190400 AAB
TAFSPI
TAF AMD
KSPI 190407Z 1904/1924 35003KT P6SM OVC040
     FM191400 VRB03KT P6SM BKN050=



000
FTUS43 KILX 190400 AAB
TAFCMI
TAF AMD
KCMI 190407Z 1904/1924 35004KT P6SM SCT015 BKN060
     FM190700 VRB03KT P6SM OVC035=



000
FTUS43 KILX 190400 AAB
TAFCMI
TAF AMD
KCMI 190407Z 1904/1924 35004KT P6SM SCT015 BKN060
     FM190700 VRB03KT P6SM OVC035=



000
FTUS43 KILX 190200 AAA
TAFSPI
TAF AMD
KSPI 190208Z 1902/1924 02003KT P6SM OVC015
     FM191200 VRB03KT P6SM OVC035=



000
FTUS43 KILX 190100 AAA
TAFDEC
TAF AMD
KDEC 190140Z 1902/1924 01003KT P6SM OVC015
     FM190800 VRB03KT P6SM OVC035=



000
FTUS43 KILX 190100 AAA
TAFCMI
TAF AMD
KCMI 190140Z 1902/1924 32003KT P6SM OVC015
     FM190800 VRB03KT P6SM OVC035=



000
FTUS43 KILX 190100 AAA
TAFDEC
TAF AMD
KDEC 190140Z 1902/1924 01003KT P6SM OVC015
     FM190800 VRB03KT P6SM OVC035=



000
FTUS43 KILX 190100 AAA
TAFCMI
TAF AMD
KCMI 190140Z 1902/1924 32003KT P6SM OVC015
     FM190800 VRB03KT P6SM OVC035=



000
FTUS43 KILX 182300
TAFSPI
TAF
KSPI 182326Z 1900/1924 VRB03KT P6SM OVC015
     FM190400 VRB03KT P6SM OVC035=



000
FTUS43 KILX 182300
TAFDEC
TAF
KDEC 182326Z 1900/1924 VRB03KT P6SM OVC015
     FM190200 VRB03KT P6SM OVC035=



000
FTUS43 KILX 182300
TAFCMI
TAF
KCMI 182326Z 1900/1924 VRB03KT P6SM OVC015
     FM190200 VRB03KT P6SM OVC035=



000
FTUS43 KILX 182300
TAFBMI
TAF
KBMI 182326Z 1900/1924 VRB03KT P6SM BKN050=



000
FTUS43 KILX 182300
TAFPIA
TAF
KPIA 182326Z 1900/1924 VRB03KT P6SM SCT040 BKN060
     FM192200 VRB04KT P6SM OVC025=



000
FTUS43 KILX 182300 AAC
TAFDEC
TAF AMD
KDEC 182310Z 1823/1918 VRB03KT P6SM OVC014
     FM190200 VRB03KT P6SM OVC035=



000
FTUS43 KILX 182200 AAB
TAFDEC
TAF AMD
KDEC 182203Z 1822/1918 VRB03KT 5SM BR OVC015
     FM190200 VRB03KT P6SM OVC035=



000
FTUS43 KILX 182200 AAA
TAFSPI
TAF AMD
KSPI 182203Z 1822/1918 VRB03KT P6SM OVC015
     FM190200 VRB03KT P6SM OVC035=



000
FTUS43 KILX 182200 AAB
TAFCMI
TAF AMD
KCMI 182203Z 1822/1918 VRB03KT P6SM OVC015
     FM190200 VRB03KT P6SM OVC035=



000
FTUS43 KILX 182000 AAA
TAFDEC
TAF AMD
KDEC 182051Z 1821/1918 VRB03KT 5SM BR OVC015
     FM182200 VRB03KT P6SM OVC035=



000
FTUS43 KILX 181900 AAA
TAFBMI
TAF AMD
KBMI 181932Z 1820/1918 VRB03KT P6SM OVC015
     FM182200 VRB03KT P6SM OVC050=



000
FTUS43 KILX 181900 AAA
TAFCMI
TAF AMD
KCMI 181932Z 1820/1918 VRB03KT P6SM OVC015
     FM182200 VRB03KT P6SM OVC035=



000
FTUS43 KILX 181700
TAFPIA
TAF
KPIA 181735Z 1818/1918 VRB03KT P6SM OVC080
     FM190100 VRB03KT P6SM OVC050=



000
FTUS43 KILX 181700
TAFDEC
TAF
KDEC 181735Z 1818/1918 VRB03KT P6SM SCT015 OVC025
      TEMPO 1818/1820 5SM -SN BR OVC015
     FM182200 VRB03KT P6SM OVC035=



000
FTUS43 KILX 181700
TAFBMI
TAF
KBMI 181735Z 1818/1918 VRB03KT P6SM OVC080
     FM190100 VRB03KT P6SM OVC050=



000
FTUS43 KILX 181700
TAFSPI
TAF
KSPI 181735Z 1818/1918 VRB03KT P6SM SCT009 OVC015
      TEMPO 1818/1820 5SM -SN BR OVC009
     FM182200 VRB03KT P6SM OVC035=



000
FTUS43 KILX 181700
TAFCMI
TAF
KCMI 181735Z 1818/1918 VRB03KT 4SM -SN SCT009 OVC025
     FM181900 VRB03KT P6SM SCT009 OVC025
     FM182200 VRB03KT P6SM OVC035=



000
FTUS43 KILX 181600 AAC
TAFSPI
TAF AMD
KSPI 181656Z 1817/1912 VRB03KT 4SM -SN BR SCT008 OVC025
     FM182000 VRB03KT P6SM OVC025
     FM190100 01003KT P6SM OVC050=



000
FTUS43 KILX 181600 AAC
TAFCMI
TAF AMD
KCMI 181655Z 1817/1912 VRB03KT 1SM -SN BR SCT015 OVC035
     FM181800 VRB03KT 3SM -SN BR SCT015 OVC035
     FM181900 VRB03KT P6SM OVC050
     FM182000 VRB03KT P6SM OVC050=



000
FTUS43 KILX 181600 AAC
TAFDEC
TAF AMD
KDEC 181622Z 1816/1912 VRB03KT 4SM -SN BR SCT025 OVC050
      TEMPO 1816/1818 2SM -SN OVC025
     FM182000 VRB03KT P6SM OVC025
     FM190100 VRB03KT P6SM OVC050=



000
FTUS43 KILX 181600 AAB
TAFSPI
TAF AMD
KSPI 181619Z 1816/1912 VRB03KT 4SM -SN BR SCT008 OVC025
      TEMPO 1816/1818 1SM -SN BR
     FM182000 VRB03KT P6SM OVC025
     FM190100 01003KT P6SM OVC050=



000
FTUS43 KILX 181600 AAB
TAFCMI
TAF AMD
KCMI 181617Z 1816/1912 VRB03KT P6SM VCSH SCT018 OVC050
     FM182000 VRB03KT P6SM OVC050=



000
FTUS43 KILX 181600 AAA
TAFBMI
TAF AMD
KBMI 181615Z 1816/1912 VRB03KT P6SM OVC080
     FM182200 VRB03KT P6SM OVC050
     FM190200 VRB03KT P6SM BKN250=



000
FTUS43 KILX 181600 AAA
TAFPIA
TAF AMD
KPIA 181614Z 1816/1912 VRB03KT P6SM OVC080
     FM190100 VRB03KT P6SM OVC050=



000
FTUS43 KILX 181500 AAB
TAFDEC
TAF AMD
KDEC 181513Z 1815/1912 VRB03KT 3SM -SN BR OVC080
      TEMPO 1815/1817 1SM -SN OVC015
     FM181700 34003KT P6SM VCSH OVC040
      TEMPO 1817/1821 BKN030
     FM190400 VRB03KT P6SM SCT040 BKN250=



000
FTUS43 KILX 181300 AAA
TAFSPI
TAF AMD
KSPI 181329Z 1813/1912 03004KT P6SM OVC090
     FM181400 VRB03KT 4SM -SN BR OVC025
      TEMPO 1814/1818 2SM -SN OVC015
     FM182200 VRB03KT P6SM OVC025
     FM190600 01003KT P6SM SCT040 BKN250=



000
FTUS43 KILX 181300 AAA
TAFSPI
TAF AMD
KSPI 181329Z 1813/1912 03004KT P6SM OVC090
     FM181400 VRB03KT 4SM -SN BR OVC025
      TEMPO 1814/1818 2SM -SN OVC015
     FM182200 VRB03KT P6SM OVC025
     FM190600 01003KT P6SM SCT040 BKN250=



000
FTUS43 KILX 181300 AAA
TAFCMI
TAF AMD
KCMI 181318Z 1813/1912 VRB04KT P6SM OVC018
      TEMPO 1816/1818 SCT020 OVC080
     FM181800 VRB03KT P6SM OVC050
      TEMPO 1820/1823 BKN030
     FM190200 VRB03KT P6SM BKN250=



000
FTUS43 KILX 181300 AAA
TAFCMI
TAF AMD
KCMI 181318Z 1813/1912 VRB04KT P6SM OVC018
      TEMPO 1816/1818 SCT020 OVC080
     FM181800 VRB03KT P6SM OVC050
      TEMPO 1820/1823 BKN030
     FM190200 VRB03KT P6SM BKN250=



000
FTUS43 KILX 181300 AAA
TAFDEC
TAF AMD
KDEC 181317Z 1813/1912 VRB03KT P6SM BKN020 OVC100
     FM181500 VRB03KT P6SM OVC080
     FM181700 34003KT P6SM VCSH OVC040
      TEMPO 1817/1821 BKN030
     FM190400 VRB03KT P6SM SCT040 BKN250=



000
FTUS43 KILX 181300 AAA
TAFDEC
TAF AMD
KDEC 181317Z 1813/1912 VRB03KT P6SM BKN020 OVC100
     FM181500 VRB03KT P6SM OVC080
     FM181700 34003KT P6SM VCSH OVC040
      TEMPO 1817/1821 BKN030
     FM190400 VRB03KT P6SM SCT040 BKN250=



000
FTUS43 KILX 181100
TAFPIA
TAF
KPIA 181120Z 1812/1912 VRB04KT P6SM OVC090
     FM181600 34004KT P6SM OVC050
      TEMPO 1816/1820 BKN030
     FM190100 VRB03KT P6SM BKN250=



000
FTUS43 KILX 181100
TAFDEC
TAF
KDEC 181120Z 1812/1912 VRB03KT P6SM BKN020
     FM181300 VRB03KT P6SM OVC090
     FM181700 34003KT P6SM VCSH OVC040
      TEMPO 1817/1821 BKN030
     FM190400 VRB03KT P6SM SCT040 BKN250=



000
FTUS43 KILX 181100
TAFSPI
TAF
KSPI 181120Z 1812/1912 03004KT P6SM OVC090
     FM181600 VRB03KT 5SM -SN BR OVC025
     FM182200 VRB03KT P6SM OVC025
     FM190600 01003KT P6SM SCT040 BKN250=



000
FTUS43 KILX 181100
TAFCMI
TAF
KCMI 181120Z 1812/1912 VRB04KT P6SM OVC018
     FM181400 VRB03KT P6SM OVC100
     FM181800 VRB03KT P6SM OVC050
      TEMPO 1820/1823 BKN030
     FM190200 VRB03KT P6SM BKN250=



000
FTUS43 KILX 181100
TAFBMI
TAF
KBMI 181120Z 1812/1912 VRB03KT P6SM BKN200
     FM181500 VRB03KT P6SM OVC090
     FM181700 30003KT P6SM OVC050
      TEMPO 1817/1821 BKN030
     FM182200 32003KT P6SM SCT050 BKN250
     FM190200 VRB03KT P6SM BKN250=



000
FTUS43 KILX 181000 AAB
TAFDEC
TAF AMD
KDEC 181036Z 1811/1906 VRB03KT P6SM BKN020
     FM181200 VRB03KT P6SM OVC080
     FM181700 VRB03KT P6SM OVC050
      TEMPO 1818/1821 BKN030
     FM182300 VRB03KT P6SM SCT035 BKN250
     FM190200 VRB03KT P6SM SCT250=



000
FTUS43 KILX 180700 AAA
TAFCMI
TAF AMD
KCMI 180715Z 1807/1906 VRB03KT P6SM OVC018
     FM181300 VRB03KT P6SM OVC080
     FM181800 VRB03KT P6SM OVC050
      TEMPO 1819/1821 BKN030
     FM182300 VRB03KT P6SM SCT050 BKN250
     FM190200 VRB03KT P6SM SCT250=



000
FTUS43 KILX 180700 AAA
TAFBMI
TAF AMD
KBMI 180714Z 1807/1906 VRB03KT P6SM BKN012 BKN250
      TEMPO 1808/1809 SCT012
     FM180900 VRB03KT P6SM SCT020 BKN200
     FM181300 VRB03KT P6SM OVC080
     FM181700 VRB03KT P6SM OVC050
      TEMPO 1817/1820 BKN030
     FM182200 VRB03KT P6SM SCT050 BKN250
     FM190200 VRB03KT P6SM SCT250=



000
FTUS43 KILX 180700 AAA
TAFDEC
TAF AMD
KDEC 180711Z 1807/1906 VRB03KT P6SM OVC020
      TEMPO 1808/1809 SCT020
     FM180900 VRB03KT P6SM SCT020 BKN250
     FM181200 VRB03KT P6SM OVC080
     FM181700 VRB03KT P6SM OVC050
      TEMPO 1818/1821 BKN030
     FM182300 VRB03KT P6SM SCT035 BKN250
     FM190200 VRB03KT P6SM SCT250=



000
FTUS43 KILX 180500
TAFDEC
TAF
KDEC 180528Z 1806/1906 VRB03KT P6SM SCT020 BKN250
      TEMPO 1806/1807 BKN020
     FM181200 VRB03KT P6SM OVC080
     FM181700 VRB03KT P6SM OVC050
      TEMPO 1818/1821 BKN030
     FM182300 VRB03KT P6SM SCT035 BKN250
     FM190200 VRB03KT P6SM SCT250=



000
FTUS43 KILX 180500
TAFBMI
TAF
KBMI 180528Z 1806/1906 VRB03KT P6SM SCT018 BKN250
      TEMPO 1806/1808 BKN018
     FM181300 VRB03KT P6SM OVC080
     FM181700 VRB03KT P6SM OVC050
      TEMPO 1817/1820 BKN030
     FM182200 VRB03KT P6SM SCT050 BKN250
     FM190200 VRB03KT P6SM SCT250=



000
FTUS43 KILX 180500
TAFPIA
TAF
KPIA 180528Z 1806/1906 VRB03KT P6SM SCT025 BKN250
     FM181200 VRB03KT P6SM OVC080
     FM181600 VRB03KT P6SM OVC050
      TEMPO 1816/1820 BKN030
     FM182100 VRB03KT P6SM SCT050 BKN250
     FM190100 VRB03KT P6SM SCT250=



000
FTUS43 KILX 180500
TAFSPI
TAF
KSPI 180528Z 1806/1906 VRB03KT P6SM BKN250
     FM181100 VRB03KT P6SM OVC080
     FM181600 VRB03KT 6SM -SN BR OVC025
     FM182200 VRB03KT P6SM SCT025 BKN250=



000
FTUS43 KILX 180500
TAFCMI
TAF
KCMI 180528Z 1806/1906 VRB03KT P6SM SCT018 BKN250
      TEMPO 1806/1809 BKN018
     FM181300 VRB03KT P6SM OVC080
     FM181800 VRB03KT P6SM OVC050
      TEMPO 1819/1821 BKN030
     FM182300 VRB03KT P6SM SCT050 BKN250
     FM190200 VRB03KT P6SM SCT250=



000
FTUS43 KILX 180400 AAA
TAFCMI
TAF AMD
KCMI 180423Z 1804/1824 VRB03KT P6SM SCT020 BKN250
      TEMPO 1804/1808 BKN020
     FM181300 VRB03KT P6SM OVC080
     FM181900 VRB03KT P6SM OVC050
     FM182200 VRB03KT P6SM SCT050 BKN250=



000
FTUS43 KILX 180400 AAA
TAFBMI
TAF AMD
KBMI 180423Z 1804/1824 VRB03KT P6SM SCT020 BKN250
      TEMPO 1804/1807 BKN020
     FM181300 VRB03KT P6SM OVC120
     FM181700 VRB03KT P6SM OVC060
     FM182300 VRB03KT P6SM SCT060 BKN250=



000
FTUS43 KILX 180400 AAA
TAFDEC
TAF AMD
KDEC 180423Z 1804/1824 VRB03KT P6SM SCT020 BKN250
      TEMPO 1804/1807 BKN020
     FM181200 VRB03KT P6SM OVC080
     FM181800 VRB03KT P6SM OVC040
     FM182200 VRB03KT P6SM SCT035 BKN250=



000
FTUS43 KILX 180100 AAA
TAFPIA
TAF AMD
KPIA 180131Z 1802/1824 VRB03KT P6SM SCT025 BKN250
      TEMPO 1802/1804 BKN025
     FM181200 VRB03KT P6SM OVC120
     FM181600 VRB03KT P6SM OVC050
     FM182100 VRB03KT P6SM SCT050 BKN250=



000
FTUS43 KILX 180100 AAA
TAFPIA
TAF AMD
KPIA 180131Z 1802/1824 VRB03KT P6SM SCT025 BKN250
      TEMPO 1802/1804 BKN025
     FM181200 VRB03KT P6SM OVC120
     FM181600 VRB03KT P6SM OVC050
     FM182100 VRB03KT P6SM SCT050 BKN250=



000
FTUS43 KILX 172300
TAFSPI
TAF
KSPI 172324Z 1800/1824 VRB03KT P6SM BKN250
     FM181100 VRB03KT P6SM OVC080
     FM181500 VRB03KT 5SM -SN BR OVC035
     FM182000 VRB03KT P6SM SCT030 BKN250=



000
FTUS43 KILX 172300
TAFDEC
TAF
KDEC 172324Z 1800/1824 VRB03KT P6SM OVC012
     FM180300 VRB03KT P6SM SCT015 BKN250
     FM181200 VRB03KT P6SM OVC080
     FM181800 VRB03KT P6SM OVC040
     FM182200 VRB03KT P6SM SCT035 BKN250=



000
FTUS43 KILX 172300
TAFCMI
TAF
KCMI 172324Z 1800/1824 VRB04KT P6SM OVC012
     FM180400 VRB03KT P6SM SCT015 BKN250
     FM181300 VRB03KT P6SM OVC080
     FM181900 VRB03KT P6SM OVC050
     FM182200 VRB03KT P6SM SCT050 BKN250=



000
FTUS43 KILX 172300
TAFBMI
TAF
KBMI 172324Z 1800/1824 VRB03KT P6SM OVC012
     FM180400 VRB03KT P6SM SCT015 BKN250
     FM181300 VRB03KT P6SM OVC120
     FM181700 VRB03KT P6SM OVC060
     FM182300 VRB03KT P6SM SCT060 BKN250=



000
FTUS43 KILX 172300
TAFPIA
TAF
KPIA 172324Z 1800/1824 VRB03KT P6SM BKN250
     FM181200 VRB03KT P6SM OVC120
     FM181600 VRB03KT P6SM OVC050
     FM182100 VRB03KT P6SM SCT050 BKN250=



000
FTUS43 KILX 172200 AAB
TAFDEC
TAF AMD
KDEC 172248Z 1723/1818 31008KT P6SM OVC015
     FM180000 VRB03KT P6SM SCT015 BKN250
     FM181200 VRB03KT P6SM BKN080=



000
FTUS43 KILX 172000 AAA
TAFCMI
TAF AMD
KCMI 172053Z 1721/1818 29008KT P6SM OVC015
     FM180000 VRB03KT P6SM SCT015
     FM181400 VRB03KT P6SM BKN080=



000
FTUS43 KILX 172000 AAA
TAFSPI
TAF AMD
KSPI 172052Z 1721/1818 32008KT P6SM SCT015
     FM180000 VRB03KT P6SM BKN250
     FM181100 VRB03KT P6SM BKN080
     FM181500 VRB03KT 6SM -SN BR BKN035=



000
FTUS43 KILX 172000 AAA
TAFDEC
TAF AMD
KDEC 172052Z 1721/1818 31008KT P6SM OVC015
     FM172200 31008KT P6SM SCT015
     FM180000 VRB03KT P6SM BKN250
     FM181200 VRB03KT P6SM BKN080=



000
FTUS43 KILX 172000 AAA
TAFBMI
TAF AMD
KBMI 172051Z 1721/1818 29008KT P6SM OVC015
     FM172300 32005KT P6SM SCT015 BKN250
     FM181400 VRB03KT P6SM BKN080=



000
FTUS43 KILX 172000 AAA
TAFPIA
TAF AMD
KPIA 172050Z 1721/1818 28008KT P6SM SCT015
     FM180000 VRB03KT P6SM BKN250
     FM181300 VRB03KT P6SM BKN080=



000
FTUS43 KILX 171700 RRA
TAFDEC
TAF
KDEC 171741Z 1718/1818 30008KT P6SM OVC015
     FM180100 VRB03KT P6SM SCT015
     FM181200 VRB03KT P6SM BKN080=



000
FTUS43 KILX 171700 RRA
TAFCMI
TAF
KCMI 171741Z 1718/1818 30010KT P6SM OVC015
     FM180200 VRB03KT P6SM SCT015
     FM181400 VRB03KT P6SM BKN080=



000
FTUS43 KILX 171700 RRA
TAFSPI
TAF
KSPI 171741Z 1718/1818 30008KT P6SM OVC015
     FM180000 VRB03KT P6SM SCT015
     FM181100 VRB03KT P6SM BKN080
     FM181500 VRB03KT 6SM -SN BR BKN035=



000
FTUS43 KILX 171700 RRA
TAFPIA
TAF
KPIA 171741Z 1718/1818 29008KT P6SM OVC015
     FM172200 30005KT P6SM SCT015
     FM181300 VRB03KT P6SM BKN080=



000
FTUS43 KILX 171700 RRA
TAFBMI
TAF
KBMI 171741Z 1718/1818 29008KT P6SM OVC008
     FM180000 32005KT P6SM SCT008
     FM181400 VRB03KT P6SM BKN080=



    US Dept of Commerce
    National Oceanic and Atmospheric Administration
    National Weather Service
    1325 East West Highway
    Silver Spring, MD 20910
    Page Author: NWS Internet Services Team
Disclaimer
Information Quality
Credits
Glossary
Privacy Policy
Freedom of Information Act (FOIA)
About Us
Career Opportunities